createdAt,value
2022-11-16T00:01:10.591Z,69.57
2022-11-16T00:03:43.971Z,69.55
2022-11-16T00:06:16.329Z,69.41
2022-11-16T00:09:09.422Z,69.77
2022-11-16T00:11:40.683Z,70.10
2022-11-16T00:14:11.545Z,70.41
2022-11-16T00:16:42.278Z,70.04
2022-11-16T00:19:16.198Z,70.38
2022-11-16T00:21:46.871Z,70.39
2022-11-16T00:24:18.790Z,70.73
2022-11-16T00:26:50.128Z,70.94
2022-11-16T00:29:24.117Z,71.15
2022-11-16T00:31:55.590Z,71.46
2022-11-16T00:34:28.460Z,71.76
2022-11-16T00:36:58.758Z,71.82
2022-11-16T00:39:29.200Z,72.07
2022-11-16T00:41:59.412Z,72.39
2022-11-16T00:44:29.626Z,72.65
2022-11-16T00:46:59.890Z,73.00
2022-11-16T00:49:32.765Z,73.05
2022-11-16T00:52:02.970Z,72.90
2022-11-16T00:54:33.314Z,72.91
2022-11-16T00:57:03.524Z,72.83
2022-11-16T00:59:34.194Z,72.68
2022-11-16T01:02:04.571Z,72.33
2022-11-16T01:04:37.508Z,72.32
2022-11-16T01:07:09.248Z,72.30
2022-11-16T01:09:39.801Z,71.94
2022-11-16T01:12:13.422Z,71.98
2022-11-16T01:14:46.625Z,72.04
2022-11-16T01:17:17.991Z,71.83
2022-11-16T01:19:50.971Z,71.68
2022-11-16T01:22:21.302Z,71.72
2022-11-16T01:24:51.555Z,71.49
2022-11-16T01:27:21.785Z,71.50
2022-11-16T01:29:52.120Z,71.67
2022-11-16T01:32:22.499Z,71.86
2022-11-16T01:34:55.594Z,71.59
2022-11-16T01:37:32.886Z,71.56
2022-11-16T01:40:03.846Z,71.45
2022-11-16T01:42:35.027Z,71.31
2022-11-16T01:45:19.662Z,71.02
2022-11-16T01:47:50.116Z,70.44
2022-11-16T01:50:26.493Z,70.44
2022-11-16T01:53:00.898Z,70.31
2022-11-16T01:55:38.946Z,70.25
2022-11-16T01:58:32.258Z,70.28
2022-11-16T02:01:13.334Z,70.11
2022-11-16T02:03:57.429Z,70.19
2022-11-16T02:07:02.158Z,70.50
2022-11-16T02:10:04.271Z,70.53
2022-11-16T02:13:04.351Z,70.79
2022-11-16T02:15:49.051Z,71.20
2022-11-16T02:18:38.974Z,71.11
2022-11-16T02:21:35.859Z,70.95
2022-11-16T02:24:46.154Z,71.22
2022-11-16T02:28:05.378Z,71.08
2022-11-16T02:30:42.866Z,71.01
2022-11-16T02:33:16.669Z,70.87
2022-11-16T02:35:51.232Z,70.93
2022-11-16T02:38:27.518Z,70.77
2022-11-16T02:41:03.702Z,70.79
2022-11-16T02:43:41.487Z,70.84
2022-11-16T02:46:22.480Z,70.97
2022-11-16T02:48:57.418Z,70.94
2022-11-16T02:51:31.519Z,71.63
2022-11-16T02:54:13.023Z,71.87
2022-11-16T02:56:53.657Z,71.91
2022-11-16T02:59:32.222Z,71.98
2022-11-16T03:02:20.896Z,72.01
2022-11-16T03:04:56.475Z,72.37
2022-11-16T03:07:33.411Z,72.34
2022-11-16T03:10:04.485Z,72.01
2022-11-16T03:12:36.627Z,72.05
2022-11-16T03:15:13.002Z,72.03
2022-11-16T03:17:49.335Z,71.29
2022-11-16T03:20:24.923Z,71.20
2022-11-16T03:22:59.744Z,70.83
2022-11-16T03:25:36.737Z,70.79
2022-11-16T03:28:15.408Z,71.11
2022-11-16T03:30:52.595Z,71.95
2022-11-16T03:33:30.777Z,72.76
2022-11-16T03:36:08.574Z,73.23
2022-11-16T03:38:43.059Z,73.05
2022-11-16T03:41:16.082Z,73.63
2022-11-16T03:43:48.283Z,73.92
2022-11-16T03:46:20.653Z,74.26
2022-11-16T03:49:00.467Z,74.74
2022-11-16T03:51:34.902Z,75.13
2022-11-16T03:54:05.712Z,75.70
2022-11-16T03:56:38.869Z,75.83
2022-11-16T03:59:09.236Z,75.96
2022-11-16T04:01:44.554Z,75.91
2022-11-16T04:04:31.026Z,76.28
2022-11-16T04:07:13.860Z,76.21
2022-11-16T04:09:56.607Z,76.49
2022-11-16T04:12:39.297Z,76.45
2022-11-16T04:15:25.494Z,76.56
2022-11-16T04:18:08.176Z,76.22
2022-11-16T04:20:54.451Z,77.12
2022-11-16T04:23:37.134Z,77.13
2022-11-16T04:26:10.643Z,77.03
2022-11-16T04:28:40.131Z,76.77
2022-11-16T04:31:22.885Z,76.52
2022-11-16T04:34:13.417Z,76.81
2022-11-16T04:37:03.944Z,76.92
2022-11-16T04:39:35.145Z,76.91
2022-11-16T04:42:19.879Z,76.78
2022-11-16T04:45:05.712Z,76.62
2022-11-16T04:47:42.287Z,76.12
2022-11-16T04:50:13.235Z,75.75
2022-11-16T04:52:47.615Z,75.73
2022-11-16T04:55:19.294Z,75.52
2022-11-16T04:57:51.462Z,75.49
2022-11-16T05:00:23.014Z,75.33
2022-11-16T05:02:59.739Z,75.35
2022-11-16T05:05:32.289Z,74.98
2022-11-16T05:08:06.978Z,74.53
2022-11-16T05:10:39.433Z,74.52
2022-11-16T05:13:10.823Z,74.66
2022-11-16T05:15:41.570Z,74.67
2022-11-16T05:18:12.273Z,74.29
2022-11-16T05:20:55.043Z,74.18
2022-11-16T05:23:40.616Z,74.62
2022-11-16T05:26:15.346Z,75.00
2022-11-16T05:28:45.803Z,75.33
2022-11-16T05:31:17.143Z,75.42
2022-11-16T05:33:48.063Z,75.69
2022-11-16T05:36:19.455Z,76.09
2022-11-16T05:38:56.245Z,76.20
2022-11-16T05:41:29.306Z,76.15
2022-11-16T05:44:00.460Z,76.28
2022-11-16T05:46:30.938Z,76.53
2022-11-16T05:49:03.600Z,76.21
2022-11-16T05:51:34.144Z,76.18
2022-11-16T05:54:08.065Z,76.21
2022-11-16T05:56:38.821Z,76.07
2022-11-16T05:59:15.198Z,76.10
2022-11-16T06:01:47.604Z,75.88
2022-11-16T06:04:24.174Z,75.70
2022-11-16T06:06:54.823Z,75.69
2022-11-16T06:09:32.158Z,75.23
2022-11-16T06:12:09.621Z,75.53
2022-11-16T06:14:40.256Z,75.63
2022-11-16T06:17:14.624Z,79.75
2022-11-16T06:19:46.092Z,78.67
2022-11-16T06:22:16.582Z,77.25
2022-11-16T06:24:50.250Z,74.70
2022-11-16T06:27:21.156Z,74.26
2022-11-16T06:29:51.663Z,74.77
2022-11-16T06:32:22.171Z,74.95
2022-11-16T06:34:52.648Z,75.29
2022-11-16T06:37:23.134Z,75.35
2022-11-16T06:39:56.352Z,75.12
2022-11-16T06:42:27.091Z,74.74
2022-11-16T06:44:58.621Z,74.34
2022-11-16T06:47:33.569Z,73.72
2022-11-16T06:50:05.058Z,73.63
2022-11-16T06:52:37.263Z,73.50
2022-11-16T06:55:12.025Z,73.17
2022-11-16T06:57:42.737Z,72.45
2022-11-16T07:00:16.079Z,72.07
2022-11-16T07:02:47.068Z,71.92
2022-11-16T07:05:21.083Z,71.26
2022-11-16T07:07:51.600Z,71.38
2022-11-16T07:10:25.019Z,71.10
2022-11-16T07:12:56.471Z,71.31
2022-11-16T07:15:27.293Z,71.70
2022-11-16T07:17:58.089Z,71.61
2022-11-16T07:20:28.565Z,71.51
2022-11-16T07:22:58.993Z,71.25
2022-11-16T07:25:32.574Z,71.12
2022-11-16T07:28:04.834Z,71.04
2022-11-16T07:30:37.039Z,70.86
2022-11-16T07:33:11.209Z,70.31
2022-11-16T07:36:05.266Z,70.35
2022-11-16T07:38:36.613Z,69.90
2022-11-16T07:41:13.143Z,69.71
2022-11-16T07:43:53.417Z,69.24
2022-11-16T07:46:45.954Z,68.26
2022-11-16T07:49:20.949Z,68.03
2022-11-16T07:51:56.368Z,67.90
2022-11-16T07:54:49.487Z,67.82
2022-11-16T07:57:22.807Z,67.76
2022-11-16T07:59:53.531Z,67.42
2022-11-16T08:02:24.292Z,67.66
2022-11-16T08:04:55.184Z,67.28
2022-11-16T08:07:29.553Z,67.26
2022-11-16T08:10:00.426Z,66.49
2022-11-16T08:12:34.365Z,66.84
2022-11-16T08:15:04.948Z,66.24
2022-11-16T08:17:36.044Z,66.25
2022-11-16T08:20:11.291Z,66.31
2022-11-16T08:22:42.571Z,66.47
2022-11-16T08:25:13.761Z,66.69
2022-11-16T08:27:49.021Z,67.04
2022-11-16T08:30:22.556Z,66.90
2022-11-16T08:32:52.712Z,67.02
2022-11-16T08:35:23.572Z,67.57
2022-11-16T08:37:54.007Z,67.77
2022-11-16T08:40:24.497Z,68.11
2022-11-16T08:42:58.148Z,68.28
2022-11-16T08:45:28.597Z,68.79
2022-11-16T08:48:03.946Z,68.96
2022-11-16T08:51:02.276Z,68.83
2022-11-16T08:53:27.569Z,69.00
2022-11-16T08:55:58.259Z,68.91
2022-11-16T08:58:31.773Z,68.90
2022-11-16T09:01:02.544Z,69.25
2022-11-16T09:03:33.012Z,69.71
2022-11-16T09:06:03.475Z,69.76
2022-11-16T09:08:34.222Z,69.59
2022-11-16T09:11:07.606Z,69.71
2022-11-16T09:13:41.013Z,69.67
2022-11-16T09:16:12.100Z,69.58
2022-11-16T09:18:42.203Z,69.76
2022-11-16T09:21:13.018Z,69.39
2022-11-16T09:23:43.482Z,69.32
2022-11-16T09:26:13.966Z,69.23
2022-11-16T09:28:47.025Z,68.79
2022-11-16T09:31:23.006Z,69.25
2022-11-16T09:33:53.924Z,69.29
2022-11-16T09:36:24.356Z,69.09
2022-11-16T09:39:29.547Z,68.65
2022-11-16T09:42:04.687Z,68.05
2022-11-16T09:45:04.655Z,67.68
2022-11-16T09:47:49.291Z,67.89
2022-11-16T09:50:44.390Z,68.22
2022-11-16T09:53:30.768Z,67.95
2022-11-16T09:56:07.149Z,68.61
2022-11-16T09:58:44.570Z,68.94
2022-11-16T10:01:29.095Z,69.05
2022-11-16T10:04:06.673Z,69.54
2022-11-16T10:06:47.946Z,69.95
2022-11-16T10:09:18.581Z,69.79
2022-11-16T10:12:17.469Z,69.66
2022-11-16T10:15:13.016Z,69.83
2022-11-16T10:18:09.007Z,69.58
2022-11-16T10:20:56.833Z,70.14
2022-11-16T10:23:41.643Z,70.03
2022-11-16T10:26:25.438Z,70.66
2022-11-16T10:29:24.236Z,70.33
2022-11-16T10:32:06.754Z,70.03
2022-11-16T10:34:49.161Z,69.92
2022-11-16T10:37:19.543Z,70.25
2022-11-16T10:39:53.360Z,69.61
2022-11-16T10:42:33.687Z,68.70
2022-11-16T10:45:16.537Z,69.42
2022-11-16T10:47:55.400Z,68.63
2022-11-16T10:50:43.544Z,68.37
2022-11-16T10:53:17.605Z,68.38
2022-11-16T10:55:48.029Z,68.28
2022-11-16T10:58:18.537Z,67.83
2022-11-16T11:00:52.882Z,67.86
2022-11-16T11:03:34.853Z,67.29
2022-11-16T11:06:08.971Z,66.84
2022-11-16T11:08:39.398Z,70.35
2022-11-16T11:11:22.195Z,67.82
2022-11-16T11:14:07.604Z,67.57
2022-11-16T11:16:38.201Z,67.71
2022-11-16T11:19:26.483Z,67.66
2022-11-16T11:22:03.933Z,68.06
2022-11-16T11:24:49.558Z,67.84
2022-11-16T11:27:27.394Z,67.43
2022-11-16T11:30:01.493Z,67.37
2022-11-16T11:32:38.250Z,67.73
2022-11-16T11:35:16.843Z,67.89
2022-11-16T11:38:02.163Z,69.18
2022-11-16T11:40:36.340Z,68.63
2022-11-16T11:43:09.035Z,69.09
2022-11-16T11:45:48.662Z,68.99
2022-11-16T11:48:35.748Z,69.35
2022-11-16T11:51:15.066Z,70.29
2022-11-16T11:53:58.591Z,70.97
2022-11-16T11:56:31.884Z,71.08
2022-11-16T11:59:02.664Z,71.74
2022-11-16T12:02:06.548Z,73.03
2022-11-16T12:05:27.286Z,74.46
2022-11-16T12:08:20.445Z,74.34
2022-11-16T12:10:58.958Z,74.59
2022-11-16T12:13:59.595Z,75.47
2022-11-16T12:16:38.501Z,74.53
2022-11-16T12:19:37.140Z,75.37
2022-11-16T12:22:23.955Z,74.94
2022-11-16T12:25:12.849Z,75.24
2022-11-16T12:27:58.359Z,75.43
2022-11-16T12:30:29.068Z,75.07
2022-11-16T12:33:17.601Z,76.47
2022-11-16T12:35:57.178Z,75.63
2022-11-16T12:38:45.923Z,75.87
2022-11-16T12:41:49.838Z,76.91
2022-11-16T12:44:33.752Z,77.65
2022-11-16T12:47:18.061Z,78.27
2022-11-16T12:50:16.060Z,79.56
2022-11-16T12:53:06.540Z,79.45
2022-11-16T12:55:47.392Z,78.84
2022-11-16T12:58:28.819Z,79.58
2022-11-16T13:01:14.822Z,79.28
2022-11-16T13:03:52.924Z,79.73
2022-11-16T13:06:30.064Z,80.73
2022-11-16T13:09:07.155Z,81.29
2022-11-16T13:11:42.779Z,80.08
2022-11-16T13:14:20.252Z,79.84
2022-11-16T13:16:54.559Z,80.30
2022-11-16T13:19:25.204Z,80.41
2022-11-16T13:22:03.738Z,80.92
2022-11-16T13:24:50.968Z,81.29
2022-11-16T13:27:33.492Z,81.76
2022-11-16T13:30:15.747Z,82.63
2022-11-16T13:33:07.672Z,83.53
2022-11-16T13:35:41.006Z,83.53
2022-11-16T13:38:15.366Z,83.95
2022-11-16T13:40:45.801Z,85.37
2022-11-16T13:43:22.811Z,86.20
2022-11-16T13:46:00.787Z,87.42
2022-11-16T13:48:38.647Z,87.01
2022-11-16T13:51:19.091Z,87.76
2022-11-16T13:56:52.181Z,88.63
2022-11-16T13:59:29.107Z,89.54
2022-11-16T14:02:02.285Z,89.76
2022-11-16T14:05:03.270Z,90.71
2022-11-16T14:07:44.948Z,91.67
2022-11-16T14:10:50.599Z,91.89
2022-11-16T14:13:45.772Z,91.65
2022-11-16T14:16:57.686Z,92.28
2022-11-16T14:19:58.408Z,92.98
2022-11-16T14:22:53.474Z,93.16
2022-11-16T14:25:35.583Z,93.25
2022-11-16T14:28:26.273Z,93.80
2022-11-16T14:31:12.768Z,94.42
2022-11-16T14:33:43.320Z,94.36
2022-11-16T14:36:14.751Z,95.21
2022-11-16T14:38:48.368Z,95.05
2022-11-16T14:41:25.298Z,94.60
2022-11-16T14:43:58.737Z,96.19
2022-11-16T14:46:33.568Z,97.67
2022-11-16T14:49:05.202Z,98.76
2022-11-16T14:51:39.775Z,99.14
2022-11-16T14:54:21.921Z,100.00
2022-11-16T14:57:00.570Z,99.57
2022-11-16T14:59:32.323Z,99.48
2022-11-16T15:02:15.728Z,99.65
2022-11-16T15:04:47.584Z,99.29
2022-11-16T15:07:19.279Z,99.66
2022-11-16T15:09:55.672Z,99.56
2022-11-16T15:12:51.399Z,100.00
2022-11-16T15:15:26.834Z,99.95
2022-11-16T15:18:11.257Z,100.00
2022-11-16T15:20:53.287Z,100.00
2022-11-16T15:23:30.865Z,100.00
2022-11-16T15:26:04.845Z,100.00
2022-11-16T15:28:35.588Z,100.00
2022-11-16T15:31:09.620Z,100.00
2022-11-16T15:33:44.261Z,100.00
2022-11-16T15:36:31.813Z,100.00
2022-11-16T15:39:03.993Z,100.00
2022-11-16T15:41:37.615Z,100.00
2022-11-16T15:44:15.072Z,100.00
2022-11-16T15:46:47.769Z,100.00
2022-11-16T15:49:31.881Z,100.00
2022-11-16T15:52:03.680Z,100.00
2022-11-16T15:54:56.458Z,100.00
2022-11-16T15:57:29.692Z,100.00
2022-11-16T16:00:00.920Z,100.00
2022-11-16T16:02:34.621Z,100.00
2022-11-16T16:05:04.988Z,100.00
2022-11-16T16:07:40.015Z,100.00
2022-11-16T16:10:26.549Z,100.00
2022-11-16T16:13:02.840Z,100.00
2022-11-16T16:15:36.908Z,100.00
2022-11-16T16:18:38.930Z,100.00
2022-11-16T16:21:09.606Z,100.00
2022-11-16T16:23:48.591Z,100.00
2022-11-16T16:26:19.837Z,100.00
2022-11-16T16:28:53.679Z,100.00
2022-11-16T16:31:24.068Z,100.00
2022-11-16T16:33:55.715Z,100.00
2022-11-16T16:36:26.102Z,100.00
2022-11-16T16:38:57.299Z,100.00
2022-11-16T16:41:27.614Z,100.00
2022-11-16T16:44:00.674Z,100.00
2022-11-16T16:46:31.148Z,100.00
2022-11-16T16:49:01.611Z,100.00
2022-11-16T16:51:32.201Z,100.00
2022-11-16T16:54:02.926Z,100.00
2022-11-16T16:56:33.483Z,100.00
2022-11-16T16:59:06.597Z,100.00
2022-11-16T17:01:37.054Z,100.00
2022-11-16T17:04:07.648Z,100.00
2022-11-16T17:06:42.388Z,100.00
2022-11-16T17:09:16.858Z,100.00
2022-11-16T17:11:47.539Z,100.00
2022-11-16T17:14:24.394Z,100.00
2022-11-16T17:16:54.950Z,100.00
2022-11-16T17:19:25.417Z,100.00
2022-11-16T17:21:56.109Z,100.00
2022-11-16T17:24:26.527Z,100.00
2022-11-16T17:26:57.031Z,100.00
2022-11-16T17:29:30.283Z,100.00
2022-11-16T17:32:00.850Z,100.00
2022-11-16T17:34:31.336Z,100.00
2022-11-16T17:37:01.769Z,100.00
2022-11-16T17:39:32.189Z,100.00
2022-11-16T17:42:02.715Z,100.00
2022-11-16T17:44:35.793Z,100.00
2022-11-16T17:47:07.557Z,100.00
2022-11-16T17:49:37.874Z,100.00
2022-11-16T17:52:08.342Z,100.00
2022-11-16T17:54:38.812Z,100.00
2022-11-16T17:57:09.275Z,100.00
2022-11-16T17:59:42.341Z,100.00
2022-11-16T18:02:14.279Z,100.00
2022-11-16T18:04:50.764Z,100.00
2022-11-16T18:07:21.708Z,100.00
2022-11-16T18:09:52.272Z,100.00
2022-11-16T18:12:22.859Z,100.00
2022-11-16T18:15:26.298Z,100.00
2022-11-16T18:17:47.780Z,100.00
2022-11-16T18:20:18.662Z,100.00
2022-11-16T18:22:49.197Z,100.00
2022-11-16T18:25:19.827Z,100.00
2022-11-16T18:27:55.250Z,100.00
2022-11-16T18:30:29.134Z,100.00
2022-11-16T18:32:59.859Z,100.00
2022-11-16T18:35:30.328Z,100.00
2022-11-16T18:38:02.197Z,100.00
2022-11-16T18:40:32.608Z,100.00
2022-11-16T18:43:03.073Z,100.00
2022-11-16T18:45:36.211Z,100.00
2022-11-16T18:48:07.069Z,100.00
2022-11-16T18:50:37.588Z,100.00
2022-11-16T18:53:08.044Z,100.00
2022-11-16T18:55:38.680Z,100.00
2022-11-16T18:58:22.898Z,100.00
2022-11-16T19:01:05.274Z,100.00
2022-11-16T19:03:36.646Z,100.00
2022-11-16T19:06:10.443Z,100.00
2022-11-16T19:08:43.647Z,100.00
2022-11-16T19:11:15.980Z,100.00
2022-11-16T19:13:47.378Z,100.00
2022-11-16T19:16:20.431Z,100.00
2022-11-16T19:18:50.843Z,100.00
2022-11-16T19:21:22.062Z,100.00
2022-11-16T19:23:54.869Z,100.00
2022-11-16T19:26:27.970Z,100.00
2022-11-16T19:28:58.781Z,100.00
2022-11-16T19:31:34.358Z,100.00
2022-11-16T19:34:07.466Z,100.00
2022-11-16T19:36:40.043Z,100.00
2022-11-16T19:39:10.732Z,100.00
2022-11-16T19:41:41.501Z,100.00
2022-11-16T19:44:12.068Z,100.00
2022-11-16T19:46:45.310Z,100.00
2022-11-16T19:49:20.189Z,100.00
2022-11-16T19:51:53.064Z,100.00
2022-11-16T19:54:23.491Z,100.00
2022-11-16T19:56:55.333Z,100.00
2022-11-16T19:59:25.843Z,100.00
2022-11-16T20:01:59.017Z,100.00
2022-11-16T20:04:33.635Z,100.00
2022-11-16T20:07:05.706Z,100.00
2022-11-16T20:09:36.565Z,100.00
2022-11-16T20:12:07.329Z,100.00
2022-11-16T20:14:37.887Z,100.00
2022-11-16T20:17:11.745Z,100.00
2022-11-16T20:19:42.081Z,100.00
2022-11-16T20:22:12.595Z,100.00
2022-11-16T20:24:43.079Z,100.00
2022-11-16T20:27:13.759Z,100.00
2022-11-16T20:29:44.183Z,100.00
2022-11-16T20:32:17.324Z,100.00
2022-11-16T20:34:47.659Z,100.00
2022-11-16T20:37:18.178Z,100.00
2022-11-16T20:39:57.215Z,100.00
2022-11-16T20:42:28.388Z,100.00
2022-11-16T20:44:58.750Z,100.00
2022-11-16T20:47:31.849Z,100.00
2022-11-16T20:50:03.290Z,100.00
2022-11-16T20:52:38.174Z,100.00
2022-11-16T20:55:13.007Z,100.00
2022-11-16T20:57:43.386Z,100.00
2022-11-16T21:00:16.462Z,100.00
2022-11-16T21:02:49.710Z,100.00
2022-11-16T21:05:20.129Z,100.00
2022-11-16T21:07:50.589Z,100.00
2022-11-16T21:10:21.285Z,100.00
2022-11-16T21:13:04.892Z,100.00
2022-11-16T21:15:35.370Z,100.00
2022-11-16T21:18:08.719Z,100.00
2022-11-16T21:20:39.104Z,100.00
2022-11-16T21:23:09.560Z,100.00
2022-11-16T21:25:40.064Z,100.00
2022-11-16T21:28:10.511Z,100.00
2022-11-16T21:30:41.028Z,100.00
2022-11-16T21:33:14.108Z,100.00
2022-11-16T21:35:44.499Z,100.00
2022-11-16T21:38:14.961Z,100.00
2022-11-16T21:40:46.661Z,100.00
2022-11-16T21:43:17.387Z,100.00
2022-11-16T21:45:49.595Z,100.00
2022-11-16T21:48:22.771Z,100.00
2022-11-16T21:51:03.309Z,100.00
2022-11-16T21:53:34.492Z,100.00
2022-11-16T21:56:06.964Z,100.00
2022-11-16T21:58:37.327Z,100.00
2022-11-16T22:01:08.036Z,100.00
2022-11-16T22:03:41.209Z,100.00
2022-11-16T22:06:29.078Z,100.00
2022-11-16T22:08:59.707Z,100.00
2022-11-16T22:11:30.299Z,100.00
2022-11-16T22:14:00.745Z,100.00
2022-11-16T22:16:31.208Z,100.00
2022-11-16T22:19:04.402Z,100.00
2022-11-16T22:21:34.774Z,100.00
2022-11-16T22:24:05.323Z,100.00
2022-11-16T22:26:35.814Z,100.00
2022-11-16T22:29:06.208Z,100.00
2022-11-16T22:31:37.053Z,100.00
2022-11-16T22:34:10.208Z,100.00
2022-11-16T22:36:40.560Z,100.00
2022-11-16T22:39:10.999Z,100.00
2022-11-16T22:41:41.581Z,100.00
2022-11-16T22:44:12.174Z,100.00
2022-11-16T22:46:42.868Z,100.00
2022-11-16T22:49:15.945Z,100.00
2022-11-16T22:51:46.377Z,100.00
2022-11-16T22:54:17.015Z,100.00
2022-11-16T22:56:47.779Z,100.00
2022-11-16T22:59:18.207Z,100.00
2022-11-16T23:01:48.641Z,100.00
2022-11-16T23:04:21.746Z,100.00
2022-11-16T23:06:52.275Z,100.00
2022-11-16T23:09:22.754Z,100.00
2022-11-16T23:12:05.546Z,100.00
2022-11-16T23:14:48.309Z,100.00
2022-11-16T23:17:18.745Z,100.00
2022-11-16T23:20:04.110Z,100.00
2022-11-16T23:22:46.808Z,100.00
2022-11-16T23:25:29.539Z,100.00
2022-11-16T23:28:06.038Z,100.00
2022-11-16T23:30:38.063Z,100.00
2022-11-16T23:33:08.617Z,100.00
2022-11-16T23:35:41.725Z,100.00
2022-11-16T23:38:12.361Z,100.00
2022-11-16T23:40:43.637Z,100.00
2022-11-16T23:43:38.977Z,100.00
2022-11-16T23:46:09.723Z,100.00
2022-11-16T23:48:40.172Z,100.00
2022-11-16T23:51:13.240Z,100.00
2022-11-16T23:53:43.848Z,100.00
2022-11-16T23:56:14.635Z,100.00
2022-11-16T23:58:45.095Z,100.00
